Time;durP1;ratioP1;P1;durP2;ratioP2;P2;SDS_P1;SDS_P2;PMS_P1;PMS_P2;Temp;Humidity;BMP_temperature;BMP_pressure;BME280_temperature;BME280_humidity;BME280_pressure;Samples;Min_cycle;Max_cycle;Signal;HPM_P1;HPM_P2
2022/12/05 00:01:30;;;;;;;37.72;13.30;;;4.70;88.20;;;;;;5114258;28;20026;-75
2022/12/05 00:03:58;;;;;;;37.60;13.05;;;4.70;88.10;;;;;;5114302;28;20020;-75
2022/12/05 00:06:26;;;;;;;34.22;13.43;;;4.70;88.00;;;;;;5114174;28;20519;-74
2022/12/05 00:08:52;;;;;;;34.08;14.15;;;4.80;88.00;;;;;;5114106;28;20031;-75
2022/12/05 00:11:24;;;;;;;36.25;13.88;;;4.80;88.10;;;;;;5114029;28;20032;-74
2022/12/05 00:13:52;;;;;;;34.45;14.77;;;4.80;87.90;;;;;;5114082;28;20028;-74
2022/12/05 00:16:21;;;;;;;33.45;13.70;;;4.80;87.90;;;;;;5112973;28;20020;-75
2022/12/05 00:18:47;;;;;;;39.50;14.18;;;4.80;88.10;;;;;;5113975;28;20027;-74
2022/12/05 00:21:20;;;;;;;33.33;13.40;;;4.70;88.20;;;;;;5113898;28;20486;-74
2022/12/05 00:23:46;;;;;;;34.42;14.07;;;4.70;88.20;;;;;;5113903;28;20020;-74
2022/12/05 00:26:12;;;;;;;37.13;12.73;;;4.80;88.20;;;;;;5113847;28;20035;-74
2022/12/05 00:28:39;;;;;;;33.15;13.55;;;4.70;88.20;;;;;;5112894;28;20035;-75
2022/12/05 00:31:07;;;;;;;32.17;13.25;;;4.70;88.30;;;;;;5113785;28;20032;-75
2022/12/05 00:33:32;;;;;;;33.95;14.07;;;4.70;88.30;;;;;;5113726;28;20031;-75
2022/12/05 00:36:10;;;;;;;31.20;13.32;;;4.80;88.20;;;;;;5113149;28;20052;-75
2022/12/05 00:38:37;;;;;;;33.67;13.23;;;4.80;88.30;;;;;;5113747;28;20032;-74
2022/12/05 00:41:04;;;;;;;40.63;13.85;;;4.70;88.30;;;;;;5113660;28;20024;-74
2022/12/05 00:43:30;;;;;;;36.03;14.45;;;4.70;88.40;;;;;;5113632;28;20016;-74
2022/12/05 00:45:59;;;;;;;36.05;13.95;;;4.80;88.40;;;;;;5113618;28;20024;-74
2022/12/05 00:48:24;;;;;;;36.10;12.95;;;4.80;88.30;;;;;;5113690;28;20034;-75
2022/12/05 00:50:58;;;;;;;36.95;13.77;;;4.80;88.20;;;;;;5113530;28;20051;-74
2022/12/05 00:53:23;;;;;;;34.22;14.07;;;4.80;88.30;;;;;;5113576;28;20039;-74
2022/12/05 00:55:49;;;;;;;36.63;14.45;;;4.80;88.20;;;;;;5112437;28;20099;-75
2022/12/05 00:58:15;;;;;;;36.45;14.05;;;4.80;88.20;;;;;;5113475;28;20024;-75
2022/12/05 01:00:40;;;;;;;34.90;14.27;;;4.90;88.10;;;;;;5112454;28;20036;-74
2022/12/05 01:03:06;;;;;;;33.47;13.02;;;4.90;88.10;;;;;;5113423;28;20024;-75
2022/12/05 01:05:33;;;;;;;32.05;12.45;;;4.90;88.10;;;;;;5112451;28;20048;-74
2022/12/05 01:07:58;;;;;;;33.97;13.20;;;4.90;88.10;;;;;;5113383;28;20054;-75
2022/12/05 01:10:24;;;;;;;30.08;12.73;;;4.90;87.90;;;;;;5113358;28;20080;-75
2022/12/05 01:12:49;;;;;;;37.15;13.60;;;4.90;87.90;;;;;;5112439;28;20077;-75
2022/12/05 01:15:15;;;;;;;37.80;14.05;;;4.90;88.00;;;;;;5113215;28;20052;-75
2022/12/05 01:17:41;;;;;;;38.13;13.82;;;4.90;88.00;;;;;;5113429;28;20027;-74
2022/12/05 01:20:07;;;;;;;35.70;13.48;;;4.90;88.10;;;;;;5113243;28;20111;-74
2022/12/05 01:22:32;;;;;;;31.02;13.15;;;4.90;88.00;;;;;;5112349;28;20074;-74
2022/12/05 01:24:58;;;;;;;33.58;14.40;;;4.90;88.00;;;;;;5113213;28;20036;-75
2022/12/05 01:27:24;;;;;;;30.95;13.25;;;4.90;87.90;;;;;;5113237;28;20039;-75
2022/12/05 01:29:49;;;;;;;35.65;14.02;;;4.90;88.00;;;;;;5113181;28;20039;-74
2022/12/05 01:32:16;;;;;;;32.97;13.88;;;4.90;88.00;;;;;;5113049;28;20048;-75
2022/12/05 01:34:42;;;;;;;34.60;14.10;;;4.90;88.10;;;;;;5113059;28;20063;-74
2022/12/05 01:37:08;;;;;;;37.80;14.02;;;4.90;88.00;;;;;;5112037;28;20064;-75
2022/12/05 01:39:33;;;;;;;36.47;14.23;;;5.00;88.00;;;;;;5113063;28;20115;-74
2022/12/05 01:41:59;;;;;;;37.70;14.27;;;5.00;88.10;;;;;;5112137;28;20099;-74
2022/12/05 01:44:25;;;;;;;31.83;12.68;;;5.00;88.10;;;;;;5113064;28;20031;-74
2022/12/05 01:46:51;;;;;;;40.25;13.82;;;5.00;88.10;;;;;;5112997;28;20078;-74
2022/12/05 01:49:30;;;;;;;35.70;14.07;;;5.00;88.10;;;;;;5113022;28;20024;-74
2022/12/05 01:52:03;;;;;;;39.03;14.20;;;5.00;88.10;;;;;;5112150;28;20091;-74
2022/12/05 01:54:29;;;;;;;34.08;13.23;;;5.00;88.10;;;;;;5115947;28;20046;-74
2022/12/05 01:57:00;;;;;;;37.78;13.70;;;5.00;88.10;;;;;;5116561;28;20035;-74
2022/12/05 01:59:30;;;;;;;37.40;14.13;;;5.00;88.20;;;;;;5116678;28;20026;-74
2022/12/05 02:01:56;;;;;;;38.20;14.52;;;5.00;88.10;;;;;;5116775;28;20020;-74
2022/12/05 02:04:22;;;;;;;39.72;14.50;;;5.00;88.20;;;;;;5115596;28;20035;-74
2022/12/05 02:06:47;;;;;;;35.17;14.23;;;5.00;88.10;;;;;;5116449;28;20024;-74
2022/12/05 02:09:13;;;;;;;40.88;14.32;;;5.00;88.10;;;;;;5116335;28;20050;-74
2022/12/05 02:11:56;;;;;;;36.50;14.52;;;5.00;88.90;;;;;;5115519;28;20028;-74
2022/12/05 02:14:55;;;;;;;36.83;14.25;;;5.00;88.40;;;;;;5116398;28;20057;-74
2022/12/05 02:17:45;;;;;;;37.25;13.63;;;5.00;88.20;;;;;;5116294;28;20122;-74
2022/12/05 02:20:39;;;;;;;35.13;14.05;;;5.00;88.30;;;;;;5115247;28;20049;-75
2022/12/05 02:23:04;;;;;;;36.13;14.75;;;5.00;88.40;;;;;;5116227;28;20046;-74
2022/12/05 02:26:08;;;;;;;37.72;14.50;;;5.00;88.40;;;;;;5115445;28;20089;-74
2022/12/05 02:29:19;;;;;;;40.42;14.77;;;5.00;88.60;;;;;;5115926;28;20024;-74
2022/12/05 02:32:01;;;;;;;40.08;14.55;;;5.00;88.70;;;;;;5095551;28;20036;-74
2022/12/05 02:34:32;;;;;;;;;;;5.00;88.70;;;;;;5116520;28;20059;-75
2022/12/05 02:37:06;;;;;;;35.15;12.75;;;5.00;88.80;;;;;;5115796;28;19916;-74
2022/12/05 02:39:37;;;;;;;41.40;13.07;;;5.00;88.80;;;;;;5115977;28;20040;-75
2022/12/05 02:42:12;;;;;;;37.28;14.35;;;5.00;89.00;;;;;;5115831;28;20031;-75
2022/12/05 02:44:49;;;;;;;35.22;13.98;;;5.00;89.20;;;;;;5115755;28;20027;-74
2022/12/05 02:47:19;;;;;;;37.95;14.27;;;5.00;89.20;;;;;;5115921;28;20016;-74
2022/12/05 02:49:46;;;;;;;37.60;13.70;;;5.00;89.20;;;;;;5115713;28;20020;-74
2022/12/05 02:52:14;;;;;;;35.63;13.43;;;5.00;89.30;;;;;;5115629;28;20020;-74
2022/12/05 02:54:43;;;;;;;39.47;14.57;;;5.10;89.40;;;;;;5115447;28;20040;-74
2022/12/05 02:57:10;;;;;;;36.60;13.90;;;5.10;89.40;;;;;;5115500;28;20046;-75
2022/12/05 02:59:37;;;;;;;40.67;14.15;;;5.10;89.40;;;;;;5115480;28;20024;-74
2022/12/05 03:02:03;;;;;;;38.08;12.95;;;5.10;89.70;;;;;;5114456;28;20032;-75
2022/12/05 03:04:30;;;;;;;36.45;14.35;;;5.10;89.50;;;;;;5114313;28;20039;-74
2022/12/05 03:07:06;;;;;;;37.25;15.32;;;5.10;89.50;;;;;;5115338;28;20040;-74
2022/12/05 03:09:44;;;;;;;37.28;13.40;;;5.10;89.80;;;;;;5115234;28;20020;-74
2022/12/05 03:12:17;;;;;;;35.72;13.60;;;5.10;89.90;;;;;;5113211;28;20111;-74
2022/12/05 03:14:49;;;;;;;37.13;14.18;;;5.00;90.00;;;;;;5115130;28;20028;-74
2022/12/05 03:17:18;;;;;;;36.90;14.23;;;5.10;90.00;;;;;;5114135;28;20054;-75
2022/12/05 03:20:01;;;;;;;40.45;14.05;;;5.10;90.00;;;;;;5115058;28;20031;-75
2022/12/05 03:22:30;;;;;;;;;;;5.10;90.00;;;;;;5114530;28;20036;-75
2022/12/05 03:24:57;;;;;;;31.90;12.93;;;5.10;90.00;;;;;;5114981;28;19904;-74
2022/12/05 03:27:32;;;;;;;37.40;14.23;;;5.10;90.00;;;;;;5114793;28;20035;-75
2022/12/05 03:30:32;;;;;;;33.53;13.60;;;5.10;90.10;;;;;;5114895;28;20028;-74
2022/12/05 03:33:07;;;;;;;37.35;13.43;;;5.00;90.10;;;;;;5092280;28;20107;-75
2022/12/05 03:35:36;;;;;;;39.03;14.48;;;5.00;90.20;;;;;;5114559;28;20066;-75
2022/12/05 03:38:18;;;;;;;35.72;13.57;;;5.00;90.20;;;;;;5113727;28;20095;-74
2022/12/05 03:40:49;;;;;;;39.72;14.82;;;5.00;90.20;;;;;;5114743;28;20032;-75
2022/12/05 03:43:26;;;;;;;38.25;14.55;;;5.10;90.20;;;;;;5114667;28;20016;-74
2022/12/05 03:46:00;;;;;;;43.78;14.95;;;5.10;90.30;;;;;;5114739;28;20020;-74
2022/12/05 03:48:45;;;;;;;41.28;15.50;;;5.10;90.20;;;;;;5113766;28;20024;-75
2022/12/05 03:51:14;;;;;;;37.65;14.52;;;5.10;90.20;;;;;;5113612;28;20034;-75
2022/12/05 03:53:47;;;;;;;36.15;13.38;;;5.10;90.20;;;;;;5114436;28;20020;-74
2022/12/05 03:56:29;;;;;;;37.70;13.90;;;5.10;90.20;;;;;;5114373;28;20024;-74
2022/12/05 03:59:12;;;;;;;39.95;13.98;;;5.10;90.20;;;;;;5114421;28;20024;-75
2022/12/05 04:01:40;;;;;;;33.63;12.80;;;5.10;90.20;;;;;;5113327;28;20016;-74
2022/12/05 04:04:15;;;;;;;36.75;14.35;;;5.10;90.20;;;;;;5114257;28;20045;-75
2022/12/05 04:06:43;;;;;;;40.97;13.57;;;5.20;90.20;;;;;;5113212;28;20051;-74
2022/12/05 04:09:11;;;;;;;39.35;15.00;;;5.10;90.30;;;;;;5114073;28;20028;-74
2022/12/05 04:11:42;;;;;;;33.42;14.43;;;5.20;90.40;;;;;;5114104;28;20032;-75
2022/12/05 04:14:16;;;;;;;40.67;14.50;;;5.20;90.30;;;;;;5114116;28;20091;-75
2022/12/05 04:17:02;;;;;;;35.50;13.13;;;5.20;90.30;;;;;;5113774;28;20024;-74
2022/12/05 04:21:36;;;;;;;34.65;12.13;;;5.20;90.30;;;;;;5114171;28;20114;-74
2022/12/05 04:22:19;;;;;;;36.17;13.60;;;5.20;90.30;;;;;;5113901;28;20023;-74
2022/12/05 04:28:12;;;;;;;37.72;14.07;;;5.30;90.30;;;;;;5071680;28;20037;-74
2022/12/05 04:31:02;;;;;;;36.67;13.75;;;5.20;90.20;;;;;;5111438;28;20036;-74
2022/12/05 04:33:46;;;;;;;40.28;14.75;;;5.20;90.20;;;;;;5074940;28;20032;-75
2022/12/05 04:36:40;;;;;;;35.05;13.52;;;5.20;90.40;;;;;;5113529;28;20044;-75
2022/12/05 04:39:24;;;;;;;32.78;13.30;;;5.20;90.30;;;;;;5113674;28;20032;-74
2022/12/05 04:42:10;;;;;;;37.58;14.05;;;5.20;90.30;;;;;;5113816;28;20024;-75
2022/12/05 04:44:43;;;;;;;34.67;13.40;;;5.30;90.80;;;;;;5113829;28;20165;-75
2022/12/05 04:47:13;;;;;;;32.97;13.27;;;5.30;90.40;;;;;;5112691;28;20024;-74
2022/12/05 04:49:41;;;;;;;29.05;11.52;;;5.20;90.40;;;;;;5113624;28;20050;-75
2022/12/05 04:52:09;;;;;;;34.63;13.32;;;5.30;90.40;;;;;;5112574;28;20051;-75
2022/12/05 04:54:43;;;;;;;33.90;13.85;;;5.30;90.40;;;;;;5113533;28;20059;-74
2022/12/05 04:57:26;;;;;;;34.38;13.27;;;5.30;90.40;;;;;;5113517;28;20024;-74
2022/12/05 04:59:52;;;;;;;30.92;12.73;;;5.30;90.50;;;;;;5112543;28;20509;-74
2022/12/05 05:02:24;;;;;;;31.17;12.52;;;5.30;90.50;;;;;;5113478;28;20024;-74
2022/12/05 05:04:52;;;;;;;32.53;12.48;;;5.30;90.40;;;;;;5113624;28;20456;-75
2022/12/05 05:07:18;;;;;;;32.30;13.00;;;5.30;90.50;;;;;;5113425;28;20032;-74
2022/12/05 05:09:44;;;;;;;30.33;11.68;;;5.30;90.50;;;;;;5112377;28;20471;-74
2022/12/05 05:12:10;;;;;;;31.17;12.10;;;5.30;90.50;;;;;;5113333;28;20047;-74
2022/12/05 05:14:36;;;;;;;32.83;11.77;;;5.20;90.50;;;;;;5112373;28;20035;-75
2022/12/05 05:17:02;;;;;;;31.90;11.93;;;5.20;90.60;;;;;;5112275;28;20024;-75
2022/12/05 05:19:27;;;;;;;30.73;12.23;;;5.20;90.50;;;;;;5095537;28;20075;-75
2022/12/05 05:21:53;;;;;;;29.65;11.52;;;5.30;90.60;;;;;;5113294;28;20020;-74
2022/12/05 05:24:20;;;;;;;34.78;12.85;;;5.30;90.60;;;;;;5113263;28;20017;-74
2022/12/05 05:26:46;;;;;;;35.05;12.70;;;5.30;90.50;;;;;;5112234;28;20020;-74
2022/12/05 05:29:13;;;;;;;29.77;12.30;;;5.30;90.50;;;;;;5116866;28;20024;-74
2022/12/05 05:31:40;;;;;;;32.63;11.93;;;5.30;90.40;;;;;;5117187;28;20028;-75
2022/12/05 05:34:06;;;;;;;30.08;12.18;;;5.30;90.50;;;;;;5116200;28;20020;-74
2022/12/05 05:36:31;;;;;;;32.63;11.50;;;5.30;90.50;;;;;;5115877;28;20082;-74
2022/12/05 05:38:59;;;;;;;28.23;11.80;;;5.30;90.50;;;;;;5116980;28;20047;-74
2022/12/05 05:41:34;;;;;;;31.02;12.05;;;5.30;90.60;;;;;;5116982;28;20080;-74
2022/12/05 05:44:01;;;;;;;31.35;11.60;;;5.30;90.90;;;;;;5116948;28;20088;-74
2022/12/05 05:46:29;;;;;;;28.13;11.15;;;5.30;90.50;;;;;;5116918;28;20035;-75
2022/12/05 05:48:55;;;;;;;32.28;11.73;;;5.30;90.60;;;;;;5116846;28;20035;-75
2022/12/05 05:51:22;;;;;;;27.63;11.80;;;5.40;90.60;;;;;;5116785;28;20036;-75
2022/12/05 05:53:48;;;;;;;27.05;11.57;;;5.30;90.60;;;;;;5116898;28;20024;-75
2022/12/05 05:56:19;;;;;;;25.42;11.27;;;5.30;90.60;;;;;;5116637;28;20371;-74
2022/12/05 05:58:45;;;;;;;28.73;10.88;;;5.40;90.60;;;;;;5116691;28;20021;-75
2022/12/05 06:01:14;;;;;;;31.08;10.88;;;5.40;90.60;;;;;;5115672;28;20487;-74
2022/12/05 06:03:40;;;;;;;26.25;11.50;;;5.40;90.60;;;;;;5116541;28;20027;-75
2022/12/05 06:06:08;;;;;;;25.70;12.18;;;5.40;90.60;;;;;;5116559;28;20028;-75
2022/12/05 06:08:36;;;;;;;26.27;10.95;;;5.40;90.60;;;;;;5116392;28;20169;-74
2022/12/05 06:11:10;;;;;;;25.23;10.57;;;5.40;90.60;;;;;;5115413;28;20034;-75
2022/12/05 06:13:36;;;;;;;28.92;10.88;;;5.40;90.60;;;;;;5116560;28;20032;-75
2022/12/05 06:16:04;;;;;;;23.35;10.13;;;5.40;90.60;;;;;;5116249;28;20035;-74
2022/12/05 06:18:30;;;;;;;24.80;10.02;;;5.40;90.60;;;;;;5116237;28;20020;-74
2022/12/05 06:20:57;;;;;;;25.48;11.18;;;5.40;90.70;;;;;;5115137;28;20099;-74
2022/12/05 06:23:24;;;;;;;25.27;10.57;;;5.40;90.70;;;;;;5116166;28;20025;-75
2022/12/05 06:25:52;;;;;;;28.95;10.77;;;5.40;90.70;;;;;;5116185;28;20027;-74
2022/12/05 06:28:19;;;;;;;28.00;10.98;;;5.40;90.70;;;;;;5116113;28;20109;-74
2022/12/05 06:30:45;;;;;;;23.08;9.60;;;5.40;90.70;;;;;;5116059;28;20029;-75
2022/12/05 06:33:11;;;;;;;22.67;10.07;;;5.40;90.70;;;;;;5115968;28;20024;-75
2022/12/05 06:35:37;;;;;;;25.65;10.20;;;5.40;90.70;;;;;;5115652;28;20036;-75
2022/12/05 06:38:04;;;;;;;28.13;10.57;;;5.50;90.70;;;;;;5115825;28;20049;-75
2022/12/05 06:40:30;;;;;;;24.65;10.57;;;5.50;90.60;;;;;;5115847;28;20050;-75
2022/12/05 06:42:55;;;;;;;24.45;11.38;;;5.50;90.60;;;;;;5115789;28;20032;-75
2022/12/05 06:45:21;;;;;;;28.38;10.35;;;5.40;90.60;;;;;;5097862;28;20044;-74
2022/12/05 06:47:46;;;;;;;24.95;10.07;;;5.50;90.70;;;;;;5114819;28;20035;-74
2022/12/05 06:50:12;;;;;;;25.30;10.43;;;5.50;90.70;;;;;;5114746;28;20023;-74
2022/12/05 06:52:37;;;;;;;23.48;9.95;;;5.50;90.70;;;;;;5115594;28;20502;-75
2022/12/05 06:55:04;;;;;;;25.27;10.65;;;5.50;90.70;;;;;;5114546;28;20024;-75
2022/12/05 06:57:29;;;;;;;24.33;9.93;;;5.50;90.70;;;;;;5114523;28;20032;-75
2022/12/05 07:01:37;;;;;;;25.98;11.02;;;5.50;90.70;;;;;;5115458;28;20032;-74
2022/12/05 07:02:41;;;;;;;27.58;10.50;;;5.50;90.70;;;;;;5115418;28;20036;-75
2022/12/05 07:05:08;;;;;;;27.85;10.82;;;5.50;90.60;;;;;;5115390;28;20028;-75
2022/12/05 07:07:34;;;;;;;23.20;10.65;;;5.60;90.60;;;;;;5115254;28;20026;-75
2022/12/05 07:09:59;;;;;;;23.65;9.85;;;5.60;90.70;;;;;;5114277;28;20032;-74
2022/12/05 07:12:25;;;;;;;25.25;9.88;;;5.50;90.60;;;;;;5114223;28;20032;-74
2022/12/05 07:14:50;;;;;;;25.48;9.45;;;5.50;90.60;;;;;;5115096;28;20028;-75
2022/12/05 07:17:17;;;;;;;21.33;9.98;;;5.50;90.70;;;;;;5114245;28;20016;-74
2022/12/05 07:19:43;;;;;;;25.02;10.20;;;5.60;90.70;;;;;;5114130;28;20045;-75
2022/12/05 07:22:08;;;;;;;26.27;10.88;;;5.60;90.70;;;;;;5115003;28;20060;-74
2022/12/05 07:24:34;;;;;;;23.95;9.55;;;5.60;90.70;;;;;;5114104;28;20055;-74
2022/12/05 07:26:59;;;;;;;22.80;9.65;;;5.60;90.70;;;;;;5114041;28;20498;-74
2022/12/05 07:29:25;;;;;;;24.45;10.23;;;5.60;90.70;;;;;;5114912;28;20102;-74
2022/12/05 07:31:53;;;;;;;24.42;9.75;;;5.60;90.70;;;;;;5113971;28;20032;-75
2022/12/05 07:34:18;;;;;;;23.27;10.35;;;5.60;90.70;;;;;;5114792;28;20032;-74
2022/12/05 07:36:44;;;;;;;24.33;9.85;;;5.60;90.70;;;;;;5114510;28;20066;-74
2022/12/05 07:39:09;;;;;;;26.75;10.90;;;5.60;90.70;;;;;;5114772;28;20035;-74
2022/12/05 07:41:35;;;;;;;20.35;9.43;;;5.60;90.70;;;;;;5113660;28;20056;-74
2022/12/05 07:44:00;;;;;;;22.27;9.65;;;5.70;90.70;;;;;;5113693;28;20028;-74
2022/12/05 07:46:27;;;;;;;24.75;10.25;;;5.70;90.70;;;;;;5114729;28;20036;-75
2022/12/05 07:48:53;;;;;;;25.17;10.25;;;5.70;90.60;;;;;;5114714;28;20061;-75
2022/12/05 07:51:20;;;;;;;26.02;9.73;;;5.70;90.60;;;;;;5113946;28;20096;-75
2022/12/05 07:53:46;;;;;;;23.42;9.57;;;5.70;90.60;;;;;;5113433;28;20020;-75
2022/12/05 07:56:15;;;;;;;27.08;10.77;;;5.70;90.60;;;;;;5114335;28;20049;-74
2022/12/05 07:58:42;;;;;;;27.27;10.85;;;5.70;90.60;;;;;;5114342;28;20016;-74
2022/12/05 08:01:14;;;;;;;24.15;9.30;;;5.70;90.60;;;;;;5114339;28;20039;-75
2022/12/05 08:03:40;;;;;;;23.30;9.63;;;5.80;90.60;;;;;;5114285;28;20471;-74
2022/12/05 08:06:14;;;;;;;23.83;10.00;;;5.80;90.60;;;;;;5114373;28;20066;-74
2022/12/05 08:08:40;;;;;;;24.02;9.90;;;5.80;90.60;;;;;;5113060;28;20031;-75
2022/12/05 08:11:12;;;;;;;25.05;9.80;;;5.80;90.60;;;;;;5114126;28;20028;-75
2022/12/05 08:13:38;;;;;;;24.00;10.98;;;5.80;90.60;;;;;;5114105;28;20061;-75
2022/12/05 08:16:07;;;;;;;23.90;10.05;;;5.70;90.60;;;;;;5113999;28;20033;-74
2022/12/05 08:18:33;;;;;;;23.17;9.57;;;5.80;90.70;;;;;;5113966;28;20077;-74
2022/12/05 08:21:03;;;;;;;24.73;10.02;;;5.80;90.70;;;;;;5113956;28;20028;-75
2022/12/05 08:23:30;;;;;;;25.63;10.82;;;5.80;90.70;;;;;;5113882;28;20024;-74
2022/12/05 08:26:03;;;;;;;21.15;9.07;;;5.80;90.70;;;;;;5113900;28;20024;-75
2022/12/05 08:28:30;;;;;;;22.42;9.57;;;5.80;90.70;;;;;;5112916;28;20034;-75
2022/12/05 08:30:55;;;;;;;23.08;9.82;;;5.80;90.70;;;;;;5113843;28;20050;-75
2022/12/05 08:33:21;;;;;;;20.65;9.63;;;5.70;90.70;;;;;;5113930;28;20455;-75
2022/12/05 08:35:46;;;;;;;22.00;9.00;;;5.70;90.80;;;;;;5113483;28;20048;-75
2022/12/05 08:38:12;;;;;;;19.33;8.63;;;5.70;90.90;;;;;;5113835;28;20025;-75
2022/12/05 08:40:37;;;;;;;20.02;9.38;;;5.70;90.80;;;;;;5113693;28;20032;-75
2022/12/05 08:43:03;;;;;;;22.10;10.27;;;5.70;90.90;;;;;;5095807;28;20066;-74
2022/12/05 08:45:28;;;;;;;22.60;9.52;;;5.70;90.90;;;;;;5113734;28;20034;-74
2022/12/05 08:47:54;;;;;;;18.75;8.70;;;5.70;90.90;;;;;;5113745;28;20032;-75
2022/12/05 08:50:20;;;;;;;23.05;9.40;;;5.70;91.00;;;;;;5113577;28;20043;-75
2022/12/05 08:52:45;;;;;;;23.00;9.82;;;5.60;91.00;;;;;;5112935;28;20054;-75
2022/12/05 08:55:11;;;;;;;23.20;9.88;;;5.60;91.00;;;;;;5113458;28;20040;-75
2022/12/05 08:57:37;;;;;;;23.98;9.55;;;5.70;91.10;;;;;;5113665;28;20020;-74
2022/12/05 09:00:05;;;;;;;22.23;9.45;;;5.70;91.10;;;;;;5113494;28;20036;-75
2022/12/05 09:02:30;;;;;;;23.35;9.77;;;5.70;91.10;;;;;;5114382;28;20084;-74
2022/12/05 09:04:56;;;;;;;21.38;8.65;;;5.70;91.10;;;;;;5117832;28;20032;-75
2022/12/05 09:07:21;;;;;;;20.70;8.13;;;5.60;91.00;;;;;;5117681;28;20064;-74
2022/12/05 09:09:47;;;;;;;16.33;7.57;;;5.60;91.00;;;;;;5116520;28;20119;-74
2022/12/05 09:12:13;;;;;;;14.98;7.30;;;5.50;91.00;;;;;;5117716;28;20028;-75
2022/12/05 09:14:42;;;;;;;16.70;6.65;;;5.50;91.00;;;;;;5117504;28;20016;-74
2022/12/05 09:17:07;;;;;;;16.42;6.95;;;5.50;90.90;;;;;;5117384;28;20047;-74
2022/12/05 09:19:34;;;;;;;13.75;6.88;;;5.40;90.90;;;;;;5117438;28;20020;-74
2022/12/05 09:21:59;;;;;;;14.05;6.18;;;5.40;90.80;;;;;;5116538;28;20043;-74
2022/12/05 09:24:25;;;;;;;13.32;6.40;;;5.40;90.80;;;;;;5116382;28;20032;-75
2022/12/05 09:26:51;;;;;;;16.85;5.88;;;5.40;90.80;;;;;;5116368;28;20041;-75
2022/12/05 09:29:17;;;;;;;11.80;5.75;;;5.40;90.70;;;;;;5117238;28;20062;-75
2022/12/05 09:31:43;;;;;;;10.20;5.75;;;5.30;90.60;;;;;;5117201;28;20032;-74
2022/12/05 09:34:09;;;;;;;13.63;5.85;;;5.30;90.70;;;;;;5116203;28;20036;-75
2022/12/05 09:36:35;;;;;;;14.75;5.45;;;5.30;90.60;;;;;;5116871;28;20047;-75
2022/12/05 09:39:03;;;;;;;11.43;5.68;;;5.30;90.70;;;;;;5117058;28;20028;-75
2022/12/05 09:44:31;;;;;;;13.13;5.30;;;5.30;90.70;;;;;;5117210;28;20032;-75
2022/12/05 09:47:03;;;;;;;12.13;5.53;;;5.30;90.60;;;;;;5116907;28;20024;-75
2022/12/05 09:49:31;;;;;;;13.00;5.53;;;5.30;90.70;;;;;;5115907;28;20024;-75
2022/12/05 09:51:59;;;;;;;12.75;5.80;;;5.30;90.70;;;;;;5116816;28;20016;-75
2022/12/05 09:54:26;;;;;;;11.32;5.28;;;5.40;90.80;;;;;;5116800;28;20020;-75
2022/12/05 09:56:52;;;;;;;15.05;6.00;;;5.40;90.80;;;;;;5116649;28;20028;-75
2022/12/05 09:59:19;;;;;;;11.57;5.72;;;5.40;90.70;;;;;;5115753;28;20036;-74
2022/12/05 10:01:50;;;;;;;10.82;5.57;;;5.40;90.60;;;;;;5115602;28;20034;-75
2022/12/05 10:04:33;;;;;;;12.43;5.88;;;5.40;90.60;;;;;;5116677;28;20084;-75
2022/12/05 10:07:33;;;;;;;11.63;5.68;;;5.40;90.70;;;;;;5116504;28;20020;-75
2022/12/05 10:10:26;;;;;;;11.43;5.90;;;5.40;90.70;;;;;;5116627;28;20035;-75
2022/12/05 10:13:01;;;;;;;13.35;5.97;;;5.40;90.60;;;;;;5116129;28;20035;-75
2022/12/05 10:15:32;;;;;;;11.05;5.32;;;5.40;90.50;;;;;;5116500;28;20024;-75
2022/12/05 10:18:02;;;;;;;12.73;6.07;;;5.30;90.60;;;;;;5116349;28;20043;-74
2022/12/05 10:20:39;;;;;;;9.73;5.05;;;5.30;90.50;;;;;;5116314;28;20024;-75
2022/12/05 10:23:14;;;;;;;12.63;5.90;;;5.30;90.70;;;;;;5115248;28;20016;-74
2022/12/05 10:25:41;;;;;;;13.25;5.80;;;5.30;90.50;;;;;;5116221;28;20103;-75
2022/12/05 10:28:27;;;;;;;11.35;5.43;;;5.30;90.60;;;;;;5116122;28;20024;-75
2022/12/05 10:30:55;;;;;;;10.63;5.25;;;5.40;90.70;;;;;;5116042;28;20020;-75
2022/12/05 10:33:22;;;;;;;12.77;5.75;;;5.40;90.70;;;;;;5115226;28;20029;-75
2022/12/05 10:35:52;;;;;;;14.77;6.20;;;5.40;90.70;;;;;;5115580;28;20151;-75
2022/12/05 10:38:30;;;;;;;12.73;5.43;;;5.40;90.50;;;;;;5115989;28;20020;-75
2022/12/05 10:41:05;;;;;;;9.75;5.68;;;5.40;90.50;;;;;;5116089;28;20012;-75
2022/12/05 10:43:33;;;;;;;9.98;5.32;;;5.30;90.20;;;;;;5115888;28;20027;-75
2022/12/05 10:46:00;;;;;;;14.55;6.05;;;5.20;90.30;;;;;;5115797;28;20122;-75
2022/12/05 10:48:26;;;;;;;12.50;5.38;;;5.20;90.30;;;;;;5114903;28;20043;-75
2022/12/05 10:50:55;;;;;;;10.52;5.10;;;5.20;90.40;;;;;;5115673;28;20027;-75
2022/12/05 10:53:48;;;;;;;10.63;5.78;;;5.20;90.50;;;;;;5114668;28;20127;-74
2022/12/05 10:56:36;;;;;;;11.75;5.20;;;5.10;90.50;;;;;;5115721;28;20032;-74
2022/12/05 10:59:03;;;;;;;11.32;5.00;;;5.20;90.80;;;;;;5115509;28;20020;-75
2022/12/05 11:01:29;;;;;;;12.30;5.05;;;5.20;90.60;;;;;;5115503;28;20016;-75
2022/12/05 11:04:03;;;;;;;10.13;5.20;;;5.30;90.50;;;;;;5115334;28;20023;-75
2022/12/05 11:06:31;;;;;;;11.73;5.78;;;5.30;90.60;;;;;;5115411;28;20031;-75
2022/12/05 11:09:17;;;;;;;10.57;5.40;;;5.30;90.30;;;;;;5115278;28;20035;-75
2022/12/05 11:12:16;;;;;;;12.43;5.72;;;5.30;90.40;;;;;;5115328;28;20024;-75
2022/12/05 11:14:54;;;;;;;13.70;6.93;;;5.30;90.40;;;;;;5115227;28;20031;-75
2022/12/05 11:17:35;;;;;;;13.85;6.53;;;5.20;90.40;;;;;;5115333;28;20020;-75
2022/12/05 11:20:23;;;;;;;12.18;6.68;;;5.30;90.50;;;;;;5115145;28;20042;-74
2022/12/05 11:22:50;;;;;;;12.98;6.10;;;5.30;90.40;;;;;;5115010;28;20024;-75
2022/12/05 11:25:29;;;;;;;14.90;6.78;;;5.30;90.20;;;;;;5114047;28;20083;-75
2022/12/05 11:27:59;;;;;;;15.10;7.32;;;5.30;90.20;;;;;;5114943;28;20024;-75
2022/12/05 11:30:27;;;;;;;13.75;7.05;;;5.30;90.30;;;;;;5114976;28;20375;-75
2022/12/05 11:33:20;;;;;;;13.63;6.70;;;5.30;90.30;;;;;;5113785;28;20027;-75
2022/12/05 11:35:47;;;;;;;17.52;7.75;;;5.30;90.40;;;;;;5114615;28;20024;-75
2022/12/05 11:38:15;;;;;;;14.77;7.13;;;5.40;90.40;;;;;;5114645;28;20032;-75
2022/12/05 11:40:59;;;;;;;13.18;7.03;;;5.40;90.30;;;;;;5114591;28;20024;-75
2022/12/05 11:43:55;;;;;;;14.57;6.25;;;5.40;90.20;;;;;;5114594;28;20051;-75
2022/12/05 11:46:26;;;;;;;13.13;6.75;;;5.40;90.20;;;;;;5114597;28;20035;-74
2022/12/05 11:49:21;;;;;;;14.05;6.95;;;5.40;90.30;;;;;;5114541;28;20107;-75
2022/12/05 11:52:12;;;;;;;13.52;6.50;;;5.50;90.30;;;;;;5025918;28;20030;-75
2022/12/05 11:55:19;;;;;;;12.90;6.05;;;5.50;90.20;;;;;;5114595;28;20081;-75
2022/12/05 11:58:09;;;;;;;12.73;6.53;;;5.50;90.30;;;;;;5110269;28;20040;-75
2022/12/05 12:01:17;;;;;;;13.77;7.03;;;5.50;90.20;;;;;;5114516;28;20056;-75
2022/12/05 12:03:55;;;;;;;13.48;6.82;;;5.50;90.10;;;;;;5114499;28;20012;-74
2022/12/05 12:06:29;;;;;;;13.23;6.07;;;5.50;90.10;;;;;;5114238;28;20082;-75
2022/12/05 12:09:16;;;;;;;12.27;6.13;;;5.50;90.10;;;;;;5114218;28;20032;-75
2022/12/05 12:11:46;;;;;;;14.85;7.20;;;5.60;90.10;;;;;;5114190;28;20039;-75
2022/12/05 12:14:30;;;;;;;14.35;7.30;;;5.50;90.10;;;;;;5114096;28;20028;-75
2022/12/05 12:16:58;;;;;;;12.30;6.45;;;5.60;90.20;;;;;;5113996;28;20036;-75
2022/12/05 12:19:53;;;;;;;13.35;6.45;;;5.60;90.20;;;;;;5114027;28;20028;-75
2022/12/05 12:22:45;;;;;;;14.40;6.43;;;5.60;90.20;;;;;;5114022;28;20024;-75
2022/12/05 12:25:24;;;;;;;15.80;6.85;;;5.60;90.20;;;;;;5112962;28;20020;-75
2022/12/05 12:28:04;;;;;;;10.68;6.20;;;5.60;90.30;;;;;;5113917;28;20020;-75
2022/12/05 12:30:38;;;;;;;15.23;6.97;;;5.60;90.30;;;;;;5112945;28;20028;-75
2022/12/05 12:33:37;;;;;;;35.28;16.35;;;5.60;90.30;;;;;;5112922;28;20016;-75
2022/12/05 12:36:15;;;;;;;24.23;10.27;;;5.60;90.30;;;;;;5113378;28;20057;-75
2022/12/05 12:39:12;;;;;;;13.60;6.32;;;5.60;90.20;;;;;;5113787;28;20028;-75
2022/12/05 12:41:50;;;;;;;14.32;7.03;;;5.60;90.30;;;;;;5113840;28;20060;-75
2022/12/05 12:44:31;;;;;;;16.33;10.20;;;5.70;90.30;;;;;;5113869;28;20024;-75
2022/12/05 12:47:00;;;;;;;12.50;6.90;;;5.70;90.30;;;;;;5113701;28;20021;-75
2022/12/05 12:49:31;;;;;;;14.98;6.68;;;5.70;90.30;;;;;;5113763;28;20028;-75
2022/12/05 12:52:13;;;;;;;13.45;6.38;;;5.70;90.40;;;;;;5112573;28;20032;-75
2022/12/05 12:55:10;;;;;;;10.95;5.75;;;5.70;90.40;;;;;;5112571;28;20020;-75
2022/12/05 12:57:48;;;;;;;12.73;5.93;;;5.70;90.40;;;;;;5113539;28;20059;-75
2022/12/05 13:00:36;;;;;;;13.35;5.38;;;5.70;90.40;;;;;;5113540;28;20036;-75
2022/12/05 13:03:10;;;;;;;9.15;4.82;;;5.70;90.40;;;;;;5113479;28;20046;-74
2022/12/05 13:05:59;;;;;;;12.73;6.03;;;5.70;90.40;;;;;;5112514;28;20049;-75
2022/12/05 13:08:35;;;;;;;11.35;5.30;;;5.70;90.50;;;;;;5113446;28;20046;-75
2022/12/05 13:11:07;;;;;;;11.07;5.45;;;5.70;90.90;;;;;;5113459;28;20084;-74